Terminal Aerodrome Forecast
Issued by NWS Northern Indiana

Home | Current Version | Previous Version | Graphics & Text | Print | Product List | Glossary On
Versions: 1 2 3 4 5 6 7 8 9 10 11 12 13 14
000
FTUS43 KIWX 250500
TAFFWA
TAF
KFWA 250536Z 2506/2606 12004KT P6SM SCT035
      TEMPO 2509/2513 5SM BR BKN030
     FM251400 19006KT P6SM SCT035 BKN200=

USA.gov is the U.S. government's official web portal to all federal, state and local government web resources and services.